Time;durP1;ratioP1;P1;durP2;ratioP2;P2;SDS_P1;SDS_P2;PMS_P1;PMS_P2;Temp;Humidity;BMP_temperature;BMP_pressure;BME280_temperature;BME280_humidity;BME280_pressure;Samples;Min_cycle;Max_cycle;Signal;HPM_P1;HPM_P2
2023/03/05 00:00:09;;;;;;;46.00;30.00;;;;;;;-142.70;100.00;60390.16;4960163;29;20094;-81
2023/03/05 00:02:34;;;;;;;50.20;31.17;;;;;;;-142.70;100.00;60390.16;4959153;29;20027;-81
2023/03/05 00:05:00;;;;;;;42.20;26.73;;;;;;;-142.70;100.00;60390.16;4960128;29;20032;-81
2023/03/05 00:07:25;;;;;;;41.85;27.00;;;;;;;-142.70;100.00;60390.16;4943844;29;20027;-83
2023/03/05 00:09:50;;;;;;;46.00;28.88;;;;;;;-142.70;100.00;60390.16;4975940;28;20090;-83
2023/03/05 00:12:16;;;;;;;35.83;24.85;;;;;;;-142.70;100.00;60390.16;4960007;29;20028;-83
2023/03/05 00:14:41;;;;;;;51.05;29.83;;;;;;;-142.70;100.00;60390.16;4975660;29;20046;-82
2023/03/05 00:17:07;;;;;;;45.90;29.08;;;;;;;-142.70;100.00;60390.16;4975896;28;20044;-83
2023/03/05 00:19:32;;;;;;;42.30;28.17;;;;;;;-142.70;100.00;60390.16;4977573;29;20035;-84
2023/03/05 00:21:58;;;;;;;47.25;28.98;;;;;;;-142.70;100.00;60390.16;4976811;29;20060;-81
2023/03/05 00:24:23;;;;;;;45.15;30.15;;;;;;;-142.70;100.00;60390.16;4959964;29;20031;-83
2023/03/05 00:26:48;;;;;;;42.00;26.77;;;;;;;-142.70;100.00;60390.16;4959976;29;20027;-83
2023/03/05 00:29:20;;;;;;;46.88;27.30;;;;;;;-142.70;100.00;60390.16;4976734;29;20063;-83
2023/03/05 00:31:46;;;;;;;44.38;28.10;;;;;;;-142.70;100.00;60390.16;4944331;29;20019;-81
2023/03/05 00:34:14;;;;;;;52.00;31.60;;;;;;;-142.70;100.00;60390.16;4956829;29;20023;-80
2023/03/05 00:36:44;;;;;;;55.85;31.20;;;;;;;-142.70;100.00;60390.16;4921115;29;20074;-81
2023/03/05 00:39:10;;;;;;;58.88;34.97;;;;;;;-142.70;100.00;60390.16;4965153;29;20019;-80
2023/03/05 00:41:36;;;;;;;69.53;37.13;;;;;;;-142.70;100.00;60390.16;4957825;29;20062;-81
2023/03/05 00:44:02;;;;;;;52.47;32.83;;;;;;;-142.70;100.00;60390.16;4957199;29;20075;-82
2023/03/05 00:46:27;;;;;;;53.88;31.42;;;;;;;-142.70;100.00;60390.16;4965193;29;20114;-82
2023/03/05 00:48:53;;;;;;;50.38;29.77;;;;;;;-142.70;100.00;60390.16;4974586;29;20019;-81
2023/03/05 00:51:19;;;;;;;50.45;29.25;;;;;;;-142.70;100.00;60390.16;4958602;29;20023;-82
2023/03/05 00:53:45;;;;;;;45.13;28.83;;;;;;;-142.70;100.00;60390.16;4954099;29;20035;-81
2023/03/05 00:56:10;;;;;;;41.08;26.42;;;;;;;-142.70;100.00;60390.16;4954391;29;20023;-81
2023/03/05 00:58:36;;;;;;;44.60;27.88;;;;;;;-142.70;100.00;60390.16;4956016;29;20023;-81
2023/03/05 01:01:02;;;;;;;46.75;28.10;;;;;;;-142.70;100.00;60390.16;4956253;29;20070;-81
2023/03/05 01:03:28;;;;;;;45.22;29.38;;;;;;;-142.70;100.00;60390.16;4955914;29;20034;-81
2023/03/05 01:05:54;;;;;;;46.10;28.98;;;;;;;-142.70;100.00;60390.16;4952439;29;20011;-81
2023/03/05 01:08:19;;;;;;;44.65;28.30;;;;;;;-142.70;100.00;60390.16;4936472;29;20073;-80
2023/03/05 01:10:45;;;;;;;48.17;29.05;;;;;;;-142.70;100.00;60390.16;4950886;29;20114;-81
2023/03/05 01:13:11;;;;;;;44.00;27.27;;;;;;;-142.70;100.00;60390.16;4954041;29;20083;-81
2023/03/05 01:15:36;;;;;;;45.30;28.48;;;;;;;-142.70;100.00;60390.16;4946384;29;20183;-81
2023/03/05 01:18:01;;;;;;;45.15;29.40;;;;;;;-142.70;100.00;60390.16;4934377;29;20449;-83
2023/03/05 01:20:27;;;;;;;44.47;27.73;;;;;;;-142.70;100.00;60390.16;4931103;29;20055;-84
2023/03/05 01:22:53;;;;;;;45.90;29.02;;;;;;;-142.70;100.00;60390.16;4904137;29;20036;-83
2023/03/05 01:25:19;;;;;;;52.63;30.05;;;;;;;-142.70;100.00;60390.16;4918921;29;20036;-83
2023/03/05 01:27:44;;;;;;;66.80;38.08;;;;;;;-142.70;100.00;60390.16;4915981;29;20085;-83
2023/03/05 01:30:12;;;;;;;76.20;41.63;;;;;;;-142.70;100.00;60390.16;4915962;29;20024;-81
2023/03/05 01:32:38;;;;;;;50.03;32.13;;;;;;;-142.70;100.00;60390.16;4917692;29;20033;-82
2023/03/05 01:35:04;;;;;;;45.45;28.85;;;;;;;-142.70;100.00;60390.16;4932129;29;20034;-81
2023/03/05 01:37:30;;;;;;;46.03;26.85;;;;;;;-142.70;100.00;60390.16;4932190;29;20047;-81
2023/03/05 01:39:56;;;;;;;45.92;28.20;;;;;;;-142.70;100.00;60390.16;4938301;29;20032;-81
2023/03/05 01:42:21;;;;;;;56.67;34.25;;;;;;;-142.70;100.00;60390.16;4938752;29;20034;-81
2023/03/05 01:45:04;;;;;;;54.80;33.03;;;;;;;-142.70;100.00;60390.16;4918186;29;20032;-81
2023/03/05 01:47:29;;;;;;;52.67;31.15;;;;;;;-142.70;100.00;60390.16;4920041;29;20041;-80
2023/03/05 01:49:55;;;;;;;46.40;28.25;;;;;;;-142.70;100.00;60390.16;4919535;29;20016;-82
2023/03/05 01:52:22;;;;;;;43.38;27.35;;;;;;;-142.70;100.00;60390.16;4938953;29;20178;-82
2023/03/05 01:54:54;;;;;;;40.15;26.23;;;;;;;-142.70;100.00;60390.16;4940287;29;20028;-83
2023/03/05 01:57:24;;;;;;;41.28;25.20;;;;;;;-142.70;100.00;60390.16;4928012;29;20043;-83
2023/03/05 01:59:54;;;;;;;38.63;24.73;;;;;;;-142.70;100.00;60390.16;4940389;29;20036;-83
2023/03/05 02:02:23;;;;;;;43.30;26.80;;;;;;;-142.70;100.00;60390.16;4940461;29;20011;-84
2023/03/05 02:04:56;;;;;;;38.00;24.88;;;;;;;-142.70;100.00;60390.16;4942426;29;20039;-84
2023/03/05 02:07:22;;;;;;;37.92;24.55;;;;;;;-142.70;100.00;60390.16;4940639;29;20024;-81
2023/03/05 02:09:48;;;;;;;34.88;23.58;;;;;;;-142.70;100.00;60390.16;4939033;29;20359;-82
2023/03/05 02:12:14;;;;;;;34.67;21.88;;;;;;;-142.70;100.00;60390.16;4939156;29;20035;-83
2023/03/05 02:14:41;;;;;;;40.60;25.73;;;;;;;-142.70;100.00;60390.16;4920342;29;20036;-83
2023/03/05 02:17:08;;;;;;;35.65;22.02;;;;;;;-142.70;100.00;60390.16;4932954;29;20064;-83
2023/03/05 02:19:51;;;;;;;32.97;23.20;;;;;;;-142.70;100.00;60390.16;4939808;29;20024;-82
2023/03/05 02:22:19;;;;;;;37.80;24.63;;;;;;;-142.70;100.00;60390.16;4940062;29;20044;-82
2023/03/05 02:24:44;;;;;;;36.20;22.67;;;;;;;-142.70;100.00;60390.16;4939331;29;20047;-82
2023/03/05 02:27:11;;;;;;;38.05;23.80;;;;;;;-142.70;100.00;60390.16;4940842;29;20040;-82
2023/03/05 02:29:42;;;;;;;39.85;25.23;;;;;;;-142.70;100.00;60390.16;4937365;29;20068;-82
2023/03/05 02:32:08;;;;;;;40.08;25.38;;;;;;;-142.70;100.00;60390.16;4939860;29;20052;-82
2023/03/05 02:34:34;;;;;;;41.40;25.55;;;;;;;-142.70;100.00;60390.16;4939919;29;20019;-81
2023/03/05 02:37:01;;;;;;;40.13;25.38;;;;;;;-142.70;100.00;60390.16;4938332;29;20028;-83
2023/03/05 02:39:27;;;;;;;44.08;27.45;;;;;;;-142.70;100.00;60390.16;4940872;29;20032;-83
2023/03/05 02:41:52;;;;;;;45.78;25.73;;;;;;;-142.70;100.00;60390.16;4924040;29;20069;-83
2023/03/05 02:44:17;;;;;;;48.42;28.08;;;;;;;-142.70;100.00;60390.16;4929467;29;20020;-83
2023/03/05 02:46:43;;;;;;;47.25;28.13;;;;;;;-142.70;100.00;60390.16;4939682;29;20699;-83
2023/03/05 02:49:08;;;;;;;43.20;28.50;;;;;;;-142.70;100.00;60390.16;4938612;29;20039;-83
2023/03/05 02:51:34;;;;;;;39.55;25.98;;;;;;;-142.70;100.00;60390.16;4940319;29;20056;-83
2023/03/05 02:53:59;;;;;;;40.10;25.77;;;;;;;-142.70;100.00;60390.16;4938981;29;20609;-82
2023/03/05 02:56:25;;;;;;;39.17;25.63;;;;;;;-142.70;100.00;60390.16;4939617;29;20012;-83
2023/03/05 02:58:50;;;;;;;38.22;23.98;;;;;;;-142.70;100.00;60390.16;4925041;29;20024;-82
2023/03/05 03:01:15;;;;;;;37.88;23.85;;;;;;;-142.70;100.00;60390.16;4940590;29;20016;-83
2023/03/05 03:03:41;;;;;;;38.08;25.80;;;;;;;-142.70;100.00;60390.16;4941025;29;20036;-83
2023/03/05 03:06:06;;;;;;;38.70;24.55;;;;;;;-142.70;100.00;60390.16;4940607;29;20032;-82
2023/03/05 03:08:32;;;;;;;50.00;29.77;;;;;;;-142.70;100.00;60390.16;4922193;29;20035;-84
2023/03/05 03:11:04;;;;;;;60.13;33.63;;;;;;;-142.70;100.00;60390.16;4922832;29;20021;-83
2023/03/05 03:13:29;;;;;;;70.90;43.72;;;;;;;-142.70;100.00;60390.16;4922598;29;20035;-83
2023/03/05 03:16:03;;;;;;;56.38;34.45;;;;;;;-142.70;100.00;60390.16;4921476;29;20056;-84
2023/03/05 03:18:29;;;;;;;48.13;26.00;;;;;;;-142.70;100.00;60390.16;4939103;29;20404;-83
2023/03/05 03:20:54;;;;;;;45.22;27.23;;;;;;;-142.70;100.00;60390.16;4930898;29;20016;-84
2023/03/05 03:23:20;;;;;;;41.67;26.23;;;;;;;-142.70;100.00;60390.16;4937678;29;20031;-81
2023/03/05 03:25:45;;;;;;;41.50;26.30;;;;;;;-142.70;100.00;60390.16;4953343;29;20032;-81
2023/03/05 03:28:10;;;;;;;40.47;26.17;;;;;;;-142.70;100.00;60390.16;4937762;29;20025;-83
2023/03/05 03:30:36;;;;;;;39.58;24.40;;;;;;;-142.70;100.00;60390.16;4938889;29;20060;-82
2023/03/05 03:33:01;;;;;;;39.35;25.40;;;;;;;-142.70;100.00;60390.16;4933898;29;20059;-83
2023/03/05 03:35:27;;;;;;;49.45;29.35;;;;;;;-142.70;100.00;60390.16;4936076;29;20036;-81
2023/03/05 03:37:52;;;;;;;58.20;35.22;;;;;;;-142.70;100.00;60390.16;4904713;29;20084;-82
2023/03/05 03:40:18;;;;;;;50.38;32.25;;;;;;;-142.70;100.00;60390.16;4936590;29;20104;-82
2023/03/05 03:42:43;;;;;;;57.63;33.67;;;;;;;-142.70;100.00;60390.16;4935480;29;20028;-83
2023/03/05 03:45:09;;;;;;;56.47;35.97;;;;;;;-142.70;100.00;60390.16;4934586;29;20024;-82
2023/03/05 03:47:34;;;;;;;59.30;34.40;;;;;;;-142.70;100.00;60390.16;4919483;29;20040;-82
2023/03/05 03:50:00;;;;;;;56.53;33.60;;;;;;;-142.70;100.00;60390.16;4936636;29;20088;-82
2023/03/05 03:52:25;;;;;;;51.30;31.65;;;;;;;-142.70;100.00;60390.16;4938396;29;20023;-82
2023/03/05 03:54:51;;;;;;;52.10;30.02;;;;;;;-142.70;100.00;60390.16;4939857;29;20032;-82
2023/03/05 03:57:17;;;;;;;58.72;35.58;;;;;;;-142.70;100.00;60390.16;4938758;29;20044;-83
2023/03/05 03:59:44;;;;;;;53.53;32.47;;;;;;;-142.70;100.00;60390.16;4935921;29;20048;-83
2023/03/05 04:02:10;;;;;;;48.50;29.75;;;;;;;-142.70;100.00;60390.16;4939106;29;20012;-83
2023/03/05 04:04:35;;;;;;;51.47;28.30;;;;;;;-142.70;100.00;60390.16;4938186;29;20117;-82
2023/03/05 04:07:01;;;;;;;42.20;25.98;;;;;;;-142.70;100.00;60390.16;4938640;29;20035;-83
2023/03/05 04:09:26;;;;;;;42.10;26.83;;;;;;;-142.70;100.00;60390.16;4938727;29;20039;-82
2023/03/05 04:11:52;;;;;;;41.17;24.40;;;;;;;-142.70;100.00;60390.16;4939736;29;20015;-83
2023/03/05 04:14:17;;;;;;;44.35;28.35;;;;;;;-142.70;100.00;60390.16;4940838;29;20071;-83
2023/03/05 04:16:42;;;;;;;48.15;28.02;;;;;;;-142.70;100.00;60390.16;4922409;29;20032;-82
2023/03/05 04:19:08;;;;;;;52.92;30.83;;;;;;;-142.70;100.00;60390.16;4927534;29;20060;-81
2023/03/05 04:21:33;;;;;;;46.85;28.25;;;;;;;-142.70;100.00;60390.16;4933246;29;20117;-83
2023/03/05 04:23:59;;;;;;;46.08;27.05;;;;;;;-142.70;100.00;60390.16;4937378;29;20054;-83
2023/03/05 04:26:24;;;;;;;48.50;29.65;;;;;;;-142.70;100.00;60390.16;4939432;29;20032;-83
2023/03/05 04:28:49;;;;;;;44.60;29.27;;;;;;;-142.70;100.00;60390.16;4939721;29;20052;-83
2023/03/05 04:31:16;;;;;;;44.95;29.00;;;;;;;-142.70;100.00;60390.16;4938540;29;20020;-83
2023/03/05 04:33:41;;;;;;;56.08;33.28;;;;;;;-142.70;100.00;60390.16;4938194;29;20085;-83
2023/03/05 04:36:07;;;;;;;55.28;33.28;;;;;;;-142.70;100.00;60390.16;4934751;29;20036;-82
2023/03/05 04:38:32;;;;;;;55.30;31.88;;;;;;;-142.70;100.00;60390.16;4939729;29;20032;-84
2023/03/05 04:40:58;;;;;;;55.58;33.15;;;;;;;-142.70;100.00;60390.16;4930694;29;20009;-83
2023/03/05 04:43:23;;;;;;;63.08;35.78;;;;;;;-142.70;100.00;60390.16;4920780;29;20096;-85
2023/03/05 04:45:48;;;;;;;68.03;40.97;;;;;;;-142.70;100.00;60390.16;4939038;29;20020;-86
2023/03/05 04:48:15;;;;;;;61.17;40.40;;;;;;;-142.70;100.00;60390.16;4937875;29;20051;-84
2023/03/05 04:50:41;;;;;;;69.05;39.80;;;;;;;-142.70;100.00;60390.16;4937576;29;20092;-83
2023/03/05 04:53:06;;;;;;;62.30;36.25;;;;;;;-142.70;100.00;60390.16;4938510;29;20028;-83
2023/03/05 04:55:32;;;;;;;66.43;36.05;;;;;;;-142.70;100.00;60390.16;4939376;29;20051;-83
2023/03/05 04:57:57;;;;;;;61.75;37.85;;;;;;;-142.70;100.00;60390.16;4938171;29;20023;-83
2023/03/05 05:00:23;;;;;;;67.10;39.88;;;;;;;-142.70;100.00;60390.16;4936422;29;20763;-80
2023/03/05 05:02:50;;;;;;;59.85;37.60;;;;;;;-142.70;100.00;60390.16;4932274;29;20042;-81
2023/03/05 05:05:21;;;;;;;59.17;35.85;;;;;;;-142.70;100.00;60390.16;4910877;29;20151;-81
2023/03/05 05:07:46;;;;;;;59.13;35.42;;;;;;;-142.70;100.00;60390.16;4935341;29;20024;-80
2023/03/05 05:10:13;;;;;;;62.67;32.00;;;;;;;-142.70;100.00;60390.16;4936447;29;20114;-81
2023/03/05 05:12:38;;;;;;;71.57;35.05;;;;;;;-142.70;100.00;60390.16;4919862;29;20028;-82
2023/03/05 05:15:05;;;;;;;66.15;34.05;;;;;;;-142.70;100.00;60390.16;4939319;29;20051;-81
2023/03/05 05:17:31;;;;;;;64.00;33.13;;;;;;;-142.70;100.00;60390.16;4960028;29;20023;-82
2023/03/05 05:19:58;;;;;;;59.10;33.97;;;;;;;-142.70;100.00;60390.16;4960751;29;20031;-82
2023/03/05 05:22:23;;;;;;;56.05;33.97;;;;;;;-142.70;100.00;60390.16;4976601;29;20050;-82
2023/03/05 05:24:48;;;;;;;65.90;35.13;;;;;;;-142.70;100.00;60390.16;4945036;29;20047;-83
2023/03/05 05:27:14;;;;;;;62.47;35.33;;;;;;;-142.70;100.00;60390.16;4945446;29;20117;-83
2023/03/05 05:29:39;;;;;;;56.75;33.60;;;;;;;-142.70;100.00;60390.16;4961733;28;20046;-83
2023/03/05 05:32:05;;;;;;;59.08;35.35;;;;;;;-142.70;100.00;60390.16;4980413;28;20026;-83
2023/03/05 05:34:30;;;;;;;64.47;35.83;;;;;;;-142.70;100.00;60390.16;4969056;29;20038;-83
2023/03/05 05:36:56;;;;;;;57.47;34.70;;;;;;;-142.70;100.00;60390.16;4977240;28;20027;-83
2023/03/05 05:39:21;;;;;;;57.90;34.75;;;;;;;-142.70;100.00;60390.16;4977077;28;20015;-82
2023/03/05 05:41:50;;;;;;;57.05;31.67;;;;;;;-142.70;100.00;60390.16;4961491;29;20066;-83
2023/03/05 05:44:15;;;;;;;60.77;34.60;;;;;;;-142.70;100.00;60390.16;4978835;29;20035;-83
2023/03/05 05:46:41;;;;;;;55.58;34.63;;;;;;;-142.70;100.00;60390.16;4945407;29;20104;-83
2023/03/05 05:49:06;;;;;;;57.65;33.15;;;;;;;-142.70;100.00;60390.16;4944878;29;20016;-82
2023/03/05 05:51:31;;;;;;;54.13;31.83;;;;;;;-142.70;100.00;60390.16;4961006;29;20083;-82
2023/03/05 05:53:57;;;;;;;52.42;32.80;;;;;;;-142.70;100.00;60390.16;4941160;29;20028;-82
2023/03/05 05:56:22;;;;;;;53.58;31.40;;;;;;;-142.70;100.00;60390.16;4942380;29;20036;-84
2023/03/05 05:58:48;;;;;;;51.63;29.42;;;;;;;-142.70;100.00;60390.16;5441451;23;20058;-82
2023/03/05 06:01:17;;;;;;;48.55;30.17;;;;;;;-142.70;100.00;60390.16;4968114;29;20070;-82
2023/03/05 06:03:43;;;;;;;49.10;31.23;;;;;;;-142.70;100.00;60390.16;4966618;28;20039;-81
2023/03/05 06:06:14;;;;;;;55.22;33.08;;;;;;;-142.70;100.00;60390.16;4960329;29;20097;-82
2023/03/05 06:08:40;;;;;;;57.45;31.15;;;;;;;-142.70;100.00;60390.16;4949960;29;20099;-82
2023/03/05 06:11:06;;;;;;;51.00;30.35;;;;;;;-142.70;100.00;60390.16;4961209;29;20015;-82
2023/03/05 06:23:52;;;;;;;38.33;28.55;;;;;;;-142.70;100.00;60390.16;5019024;23;20524;-87
2023/03/05 06:26:20;;;;;;;39.88;28.80;;;;;;;-142.70;100.00;60390.16;4946633;28;20035;-87
2023/03/05 06:28:46;;;;;;;33.35;25.83;;;;;;;-142.70;100.00;60390.16;4946750;28;20034;-86
2023/03/05 06:31:24;;;;;;;35.00;27.08;;;;;;;-142.70;100.00;60390.16;4929834;28;20025;-86
2023/03/05 06:33:50;;;;;;;36.80;26.67;;;;;;;-142.70;100.00;60390.16;4935692;28;20091;-86
2023/03/05 06:36:17;;;;;;;29.27;25.08;;;;;;;-142.70;100.00;60390.16;4944347;28;20122;-86
2023/03/05 06:38:43;;;;;;;35.80;26.17;;;;;;;-142.70;100.00;60390.16;4930898;28;20489;-84
2023/03/05 06:41:11;;;;;;;30.70;25.20;;;;;;;-142.70;100.00;60390.16;4938852;28;20042;-88
2023/03/05 06:43:38;;;;;;;34.80;26.45;;;;;;;-142.70;100.00;60390.16;4932878;28;20553;-86
2023/03/05 06:46:12;;;;;;;29.63;25.25;;;;;;;-142.70;100.00;60390.16;4929405;28;20051;-87
2023/03/05 06:48:38;;;;;;;31.35;24.77;;;;;;;-142.70;100.00;60390.16;4947410;28;20082;-86
2023/03/05 06:51:03;;;;;;;30.13;25.05;;;;;;;-142.70;100.00;60390.16;4949219;28;20035;-88
2023/03/05 06:53:29;;;;;;;33.83;26.52;;;;;;;-142.70;100.00;60390.16;4923756;28;20106;-86
2023/03/05 06:55:54;;;;;;;33.05;25.02;;;;;;;-142.70;100.00;60390.16;4938676;28;20041;-82
2023/03/05 06:58:20;;;;;;;34.25;24.63;;;;;;;-142.70;100.00;60390.16;4931236;28;20027;-83
2023/03/05 07:00:46;;;;;;;34.83;25.98;;;;;;;-142.70;100.00;60390.16;4928654;29;20129;-85
2023/03/05 07:03:11;;;;;;;35.45;23.63;;;;;;;-142.70;100.00;60390.16;4953891;28;20024;-85
2023/03/05 07:05:40;;;;;;;33.35;25.52;;;;;;;-142.70;100.00;60390.16;4928751;28;20088;-83
2023/03/05 07:08:06;;;;;;;31.73;23.27;;;;;;;-142.70;100.00;60390.16;4949408;28;20154;-82
2023/03/05 07:10:32;;;;;;;28.70;23.30;;;;;;;-142.70;100.00;60390.16;4925744;29;20106;-84
2023/03/05 07:12:57;;;;;;;30.05;22.35;;;;;;;-142.70;100.00;60390.16;4911968;29;20035;-83
2023/03/05 07:15:23;;;;;;;30.40;21.77;;;;;;;-142.70;100.00;60390.16;4925205;29;20039;-80
2023/03/05 07:17:48;;;;;;;28.70;22.40;;;;;;;-142.70;100.00;60390.16;4915194;29;20031;-79
2023/03/05 07:20:14;;;;;;;25.05;20.15;;;;;;;-142.70;100.00;60390.16;4925516;29;20122;-80
2023/03/05 07:22:39;;;;;;;23.40;18.73;;;;;;;-142.70;100.00;60390.16;4930852;29;20474;-81
2023/03/05 07:25:06;;;;;;;22.75;19.13;;;;;;;-142.70;100.00;60390.16;4927015;29;20016;-81
2023/03/05 07:27:36;;;;;;;20.67;18.25;;;;;;;-142.70;100.00;60390.16;4923146;28;20895;-81
2023/03/05 07:30:02;;;;;;;22.70;20.10;;;;;;;-142.70;100.00;60390.16;4929409;29;20110;-82
2023/03/05 07:32:27;;;;;;;26.52;21.15;;;;;;;-142.70;100.00;60390.16;4922304;29;20111;-82
2023/03/05 07:34:52;;;;;;;26.05;21.40;;;;;;;-142.70;100.00;60390.16;5023525;23;20071;-85
2023/03/05 07:37:18;;;;;;;31.35;21.67;;;;;;;-142.70;100.00;60390.16;5079467;23;20067;-84
2023/03/05 07:39:43;;;;;;;24.30;19.42;;;;;;;-142.70;100.00;60390.16;4897028;29;20064;-81
2023/03/05 07:42:09;;;;;;;28.83;20.73;;;;;;;-142.70;100.00;60390.16;4919014;29;20096;-80
2023/03/05 07:44:35;;;;;;;29.73;21.98;;;;;;;-142.70;100.00;60390.16;4914640;29;20119;-80
2023/03/05 07:47:00;;;;;;;32.05;20.27;;;;;;;-142.70;100.00;60390.16;4920602;29;20028;-79
2023/03/05 07:49:25;;;;;;;24.65;18.77;;;;;;;-142.70;100.00;60390.16;4921364;29;20121;-80
2023/03/05 07:51:51;;;;;;;29.50;19.83;;;;;;;-142.70;100.00;60390.16;4912060;29;20020;-79
2023/03/05 07:54:16;;;;;;;28.50;20.33;;;;;;;-142.70;100.00;60390.16;4914069;29;20036;-79
2023/03/05 07:56:42;;;;;;;29.63;20.25;;;;;;;-142.70;100.00;60390.16;4910237;29;20103;-79
2023/03/05 07:59:10;;;;;;;28.40;20.48;;;;;;;-142.70;100.00;60390.16;4915051;29;20028;-80
2023/03/05 08:01:36;;;;;;;28.95;20.73;;;;;;;-142.70;100.00;60390.16;4915954;29;20064;-80
2023/03/05 08:04:03;;;;;;;30.70;20.77;;;;;;;-142.70;100.00;60390.16;4914777;29;20530;-79
2023/03/05 08:06:29;;;;;;;28.60;20.17;;;;;;;-142.70;100.00;60390.16;4905042;29;20399;-79
2023/03/05 08:08:54;;;;;;;25.95;19.58;;;;;;;-142.70;100.00;60390.16;4908955;29;20119;-79
2023/03/05 08:11:20;;;;;;;29.15;19.80;;;;;;;-142.70;100.00;60390.16;4913974;29;20032;-79
2023/03/05 08:13:46;;;;;;;24.27;18.10;;;;;;;-142.70;100.00;60390.16;4915387;29;20505;-80
2023/03/05 08:16:14;;;;;;;24.95;19.10;;;;;;;-142.70;100.00;60390.16;4915893;29;20020;-81
2023/03/05 08:18:39;;;;;;;29.65;20.25;;;;;;;-142.70;100.00;60390.16;5004525;23;20371;-80
2023/03/05 08:21:05;;;;;;;32.88;18.90;;;;;;;-142.70;100.00;60390.16;4952286;29;20094;-80
2023/03/05 08:23:33;;;;;;;30.02;20.33;;;;;;;-142.70;100.00;60390.16;4949106;29;20035;-79
2023/03/05 08:25:59;;;;;;;23.10;16.55;;;;;;;-142.70;100.00;60390.16;4942489;28;20037;-78
2023/03/05 08:28:24;;;;;;;27.52;18.70;;;;;;;-142.70;100.00;60390.16;4949677;28;20045;-79
2023/03/05 08:30:50;;;;;;;31.15;20.25;;;;;;;-142.70;100.00;60390.16;4949643;29;20473;-81
2023/03/05 08:33:16;;;;;;;29.48;18.58;;;;;;;-142.70;100.00;60390.16;4940876;28;20045;-80
2023/03/05 08:35:42;;;;;;;28.10;18.50;;;;;;;-142.70;100.00;60390.16;4949969;29;20039;-80
2023/03/05 08:38:08;;;;;;;27.33;18.98;;;;;;;-142.70;100.00;60390.16;4971698;28;20027;-80
2023/03/05 08:40:33;;;;;;;31.75;20.50;;;;;;;-142.70;100.00;60390.16;4971685;28;20034;-81
2023/03/05 08:45:34;;;;;;;28.75;16.48;;;;;;;-142.70;100.00;60390.16;5291775;23;20047;-78
2023/03/05 08:48:00;;;;;;;27.52;18.02;;;;;;;-142.70;100.00;60390.16;5218292;23;20192;-80
2023/03/05 08:50:30;;;;;;;28.08;18.95;;;;;;;-142.70;100.00;60390.16;4953121;29;20022;-81
2023/03/05 08:58:19;;;;;;;28.60;18.35;;;;;;;-142.70;100.00;60390.16;5041611;23;20057;-79
2023/03/05 09:00:44;;;;;;;27.92;19.52;;;;;;;-142.70;100.00;60390.16;5308826;23;20034;-78
2023/03/05 09:03:10;;;;;;;26.38;19.20;;;;;;;-142.70;100.00;60390.16;5641038;23;20080;-80
2023/03/05 09:05:35;;;;;;;27.25;17.77;;;;;;;-142.70;100.00;60390.16;4937460;29;20020;-81
2023/03/05 09:08:01;;;;;;;28.55;18.77;;;;;;;-142.70;100.00;60390.16;4948576;29;20035;-82
2023/03/05 09:13:03;;;;;;;26.52;17.55;;;;;;;-142.70;100.00;60390.16;5754107;23;22781;-80
2023/03/05 09:15:29;;;;;;;28.55;19.08;;;;;;;-142.70;100.00;60390.16;4921268;29;20024;-81
2023/03/05 09:20:29;;;;;;;28.60;18.77;;;;;;;-142.70;100.00;60390.16;5672991;23;20060;-79
2023/03/05 10:42:36;;;;;;;26.02;18.80;;;;;;;-142.70;100.00;60390.16;5119083;23;20103;-81
2023/03/05 10:45:28;;;;;;;28.98;19.73;;;;;;;-142.70;100.00;60390.16;4886387;29;20070;-81
2023/03/05 11:08:26;;;;;;;28.50;19.30;;;;;;;-142.70;100.00;60390.16;5827609;23;20039;-81
2023/03/05 11:13:28;;;;;;;24.27;17.83;;;;;;;-142.70;100.00;60390.16;5061906;23;20048;-80
2023/03/05 11:18:33;;;;;;;29.95;19.48;;;;;;;-142.70;100.00;60390.16;5451798;23;20076;-79
2023/03/05 11:21:08;;;;;;;24.50;18.85;;;;;;;-142.70;100.00;60390.16;4909056;29;20048;-81
2023/03/05 11:23:34;;;;;;;26.25;18.67;;;;;;;-142.70;100.00;60390.16;4921050;29;20032;-79
2023/03/05 11:31:15;;;;;;;26.30;18.90;;;;;;;-142.70;100.00;60390.16;5258767;23;20064;-82
2023/03/05 11:33:53;;;;;;;27.65;19.30;;;;;;;-142.70;100.00;60390.16;5016681;23;20074;-82
2023/03/05 11:36:19;;;;;;;27.75;20.23;;;;;;;-142.70;100.00;60390.16;4989551;23;20068;-82
2023/03/05 11:38:55;;;;;;;27.70;18.73;;;;;;;-142.70;100.00;60390.16;4923153;29;20033;-80
2023/03/05 11:41:27;;;;;;;25.98;19.92;;;;;;;-142.70;100.00;60390.16;5072679;23;20064;-81
2023/03/05 11:46:40;;;;;;;28.55;20.55;;;;;;;-142.70;100.00;60390.16;4990214;23;20083;-80
2023/03/05 11:49:10;;;;;;;27.60;20.08;;;;;;;-142.70;100.00;60390.16;4896470;29;20027;-82
2023/03/05 11:54:27;;;;;;;24.63;18.77;;;;;;;-142.70;100.00;60390.16;5274296;23;20064;-78
2023/03/05 11:56:53;;;;;;;23.95;18.75;;;;;;;-142.70;100.00;60390.16;4879647;29;20044;-80
2023/03/05 11:59:27;;;;;;;32.30;20.55;;;;;;;-142.70;100.00;60390.16;4885878;29;20414;-81
2023/03/05 12:01:54;;;;;;;26.58;20.80;;;;;;;-142.70;100.00;60390.16;4894496;29;20090;-79
2023/03/05 12:04:21;;;;;;;27.55;19.45;;;;;;;-142.70;100.00;60390.16;4897460;29;20046;-81
2023/03/05 12:07:06;;;;;;;30.67;20.25;;;;;;;-142.70;100.00;60390.16;4914303;29;20110;-78
2023/03/05 12:09:46;;;;;;;27.55;19.63;;;;;;;-142.70;100.00;60390.16;4926478;29;20051;-80
2023/03/05 12:12:35;;;;;;;26.30;18.92;;;;;;;-142.70;100.00;60390.16;4895993;29;20070;-79
2023/03/05 12:15:35;;;;;;;23.52;18.55;;;;;;;-142.70;100.00;60390.16;4904392;29;20067;-78
2023/03/05 12:18:24;;;;;;;29.05;18.83;;;;;;;-142.70;100.00;60390.16;4906751;29;20087;-78
2023/03/05 12:21:17;;;;;;;30.02;19.35;;;;;;;-142.70;100.00;60390.16;4928898;29;20468;-79
2023/03/05 12:24:02;;;;;;;26.55;18.38;;;;;;;-142.70;100.00;60390.16;4919842;29;20032;-79
2023/03/05 12:26:54;;;;;;;27.17;18.83;;;;;;;-142.70;100.00;60390.16;4923408;29;20138;-79
2023/03/05 12:29:46;;;;;;;22.35;15.85;;;;;;;-142.70;100.00;60390.16;4924935;29;20031;-79
2023/03/05 12:32:20;;;;;;;22.65;15.25;;;;;;;-142.70;100.00;60390.16;4914420;29;20083;-79
2023/03/05 12:34:48;;;;;;;24.92;17.08;;;;;;;-142.70;100.00;60390.16;4935332;29;20024;-77
2023/03/05 12:37:34;;;;;;;24.88;17.70;;;;;;;-142.70;100.00;60390.16;4924235;29;20019;-78
2023/03/05 12:40:03;;;;;;;24.23;18.50;;;;;;;-142.70;100.00;60390.16;4900036;29;20051;-80
2023/03/05 12:42:28;;;;;;;23.77;18.95;;;;;;;-142.70;100.00;60390.16;4938576;29;20442;-78
2023/03/05 12:45:13;;;;;;;23.70;17.83;;;;;;;-142.70;100.00;60390.16;4925187;29;20026;-79
2023/03/05 12:48:09;;;;;;;22.00;16.83;;;;;;;-142.70;100.00;60390.16;4904833;29;20034;-78
2023/03/05 12:50:38;;;;;;;27.50;18.90;;;;;;;-142.70;100.00;60390.16;4921080;29;20458;-80
2023/03/05 12:53:03;;;;;;;25.05;19.52;;;;;;;-142.70;100.00;60390.16;4927401;29;20035;-79
2023/03/05 12:55:33;;;;;;;24.63;19.48;;;;;;;-142.70;100.00;60390.16;4926959;29;20496;-80
2023/03/05 12:58:12;;;;;;;24.67;18.77;;;;;;;-142.70;100.00;60390.16;4898347;29;20032;-80
2023/03/05 13:01:19;;;;;;;30.63;18.85;;;;;;;-142.70;100.00;60390.16;4905897;29;20810;-79
2023/03/05 13:03:58;;;;;;;23.85;18.10;;;;;;;-142.70;100.00;60390.16;4917045;29;20058;-79
2023/03/05 13:06:32;;;;;;;24.37;17.67;;;;;;;-142.70;100.00;60390.16;4904420;29;20032;-79
2023/03/05 13:09:17;;;;;;;23.90;17.63;;;;;;;-142.70;100.00;60390.16;4904779;29;20035;-79
2023/03/05 13:11:46;;;;;;;22.40;16.23;;;;;;;-142.70;100.00;60390.16;4898164;29;20031;-79
2023/03/05 13:14:26;;;;;;;24.08;17.52;;;;;;;-142.70;100.00;60390.16;4917861;29;20871;-80
2023/03/05 13:16:52;;;;;;;36.75;18.13;;;;;;;-142.70;100.00;60390.16;4935234;29;20043;-79